Etusivu
METAR-TAF:

METAR-TAF

Lentoasemat :

Turun lentoasema

Turku, Suomi

Leveyspiiri: 60-31N, Pituuspiiri: 022-16E, korkeus merenpinnasta: 49 m

Tämänhetkinen sää

Tämä raportti tehtiin 33 minuuttia sitten, kello 09.20 UTC
Tuuli 5 kn pohjoisesta, vaihdellen lännen/luoteen ja idän välillä
Lämpötila 5°C
Kosteus 75%
Ilmanpaine 1003 hPa
Näkyvyys 10 km tai enemmän
Pilvistä 1700 ft:n korkeudessa

METAR: EFTU 170920Z AUTO 01005KT 290V080 9999 OVC017 05/01 Q1003

Aika: 12:53 (09:53 UTC)

Sääennuste

Tämä raportti tehtiin 1 tunti ja 29 minuuttia sitten, kello 08.24 UTC
Ennuste voimassa 17. päivästä klo 09 UTC - 18. päivään klo 09 UTC
Tuuli 6 kn pohjoisesta
Näkyvyys 10 km tai enemmän
Hajonneita pilviä 1300 ft:n korkeudessa
Tulossa
17. päivästä klo 09 UTC - 17. päivään klo 11 UTC
Hajonneita pilviä 2600 ft:n korkeudessa

TAF: EFTU 170824Z 1709/1809 36006KT 9999 BKN013 BECMG 1709/1711 BKN026

Säähavainnot ja -ennusteet yli 4000 lentoasemalta (METAR- ja TAF-raportit).

Käytössä olevat sääasemat on merkitty karttaan keltaisilla ja punaisilla pisteillä.

Aseta hiiri pisteen päälle nähdäksesi sääaseman nimen.

Klikkaa sitten nähdäksesi säähavainnot ja -ennusteet.

Kartan vaihtaminen: klikkaa mustalla rastilla varustettuja vihreitä pisteitä, niin voit zoomata sisään; viivalla varustettua vihreää pistettä, niin voit zoomata ulos tai vihreitä nuolia, niin pääset viereisille kartoille.


METAR-TAF: